Time;durP1;ratioP1;P1;durP2;ratioP2;P2;SDS_P1;SDS_P2;PMS_P1;PMS_P2;Temp;Humidity;BMP_temperature;BMP_pressure;BME280_temperature;BME280_humidity;BME280_pressure;Samples;Min_cycle;Max_cycle;Signal;HPM_P1;HPM_P2
2024/01/17 06:02:13;;;;;;;50.60;23.20;;;;;;;;;;5093562;23;20583;-77
2024/01/17 06:04:40;;;;;;;44.93;20.77;;;;;;;;;;4962100;29;20437;-77
2024/01/17 06:07:06;;;;;;;55.37;21.60;;;;;;;;;;4960980;29;20832;-77
2024/01/17 06:09:32;;;;;;;48.60;20.47;;;;;;;;;;4958889;29;20463;-77
2024/01/17 06:11:57;;;;;;;44.83;19.53;;;;;;;;;;4958221;28;20432;-78
2024/01/17 06:14:23;;;;;;;43.90;20.27;;;;;;;;;;4957052;29;20427;-79
2024/01/17 06:16:49;;;;;;;50.80;18.57;;;;;;;;;;4958507;29;20412;-78
2024/01/17 06:19:16;;;;;;;45.77;19.73;;;;;;;;;;4958440;29;20966;-78
2024/01/17 06:21:42;;;;;;;40.07;19.90;;;;;;;;;;4955252;28;20443;-79
2024/01/17 06:24:09;;;;;;;46.27;19.40;;;;;;;;;;4956376;29;20472;-78
2024/01/17 06:26:35;;;;;;;42.00;20.70;;;;;;;;;;4956563;28;20916;-77
2024/01/17 06:29:01;;;;;;;49.30;19.60;;;;;;;;;;4956422;29;20466;-78
2024/01/17 06:31:27;;;;;;;43.63;20.13;;;;;;;;;;4954787;28;20532;-78
2024/01/17 06:33:53;;;;;;;43.17;19.40;;;;;;;;;;4955069;29;20475;-78
2024/01/17 06:36:19;;;;;;;47.63;20.70;;;;;;;;;;4955889;29;20424;-79
2024/01/17 06:38:45;;;;;;;57.53;22.77;;;;;;;;;;4956355;29;20929;-79
2024/01/17 06:41:11;;;;;;;55.73;23.80;;;;;;;;;;4956546;28;20966;-78
2024/01/17 06:43:37;;;;;;;57.30;22.80;;;;;;;;;;4956193;29;20464;-78
2024/01/17 06:46:03;;;;;;;51.53;24.13;;;;;;;;;;4966816;29;20979;-78
2024/01/17 06:48:30;;;;;;;46.20;21.27;;;;;;;;;;4957456;29;20432;-79
2024/01/17 06:50:56;;;;;;;54.13;21.60;;;;;;;;;;4962050;28;20961;-79
2024/01/17 06:53:22;;;;;;;42.27;18.70;;;;;;;;;;4962012;29;20432;-79
2024/01/17 06:55:48;;;;;;;48.63;22.10;;;;;;;;;;4968230;28;20413;-79
2024/01/17 06:58:14;;;;;;;57.10;23.30;;;;;;;;;;4966009;28;20424;-79
2024/01/17 07:00:41;;;;;;;52.60;20.60;;;;;;;;;;4962432;28;20457;-79
2024/01/17 07:03:07;;;;;;;52.50;21.03;;;;;;;;;;4960069;29;20468;-80
2024/01/17 07:05:33;;;;;;;45.53;19.20;;;;;;;;;;4961366;29;20471;-79
2024/01/17 07:07:59;;;;;;;53.57;22.00;;;;;;;;;;4960762;29;21082;-79
2024/01/17 07:10:25;;;;;;;48.43;21.57;;;;;;;;;;4960290;28;20409;-77
2024/01/17 07:12:51;;;;;;;56.27;21.73;;;;;;;;;;4949734;29;20445;-79
2024/01/17 07:15:17;;;;;;;57.47;20.93;;;;;;;;;;4939804;29;20413;-78
2024/01/17 07:17:43;;;;;;;45.23;19.70;;;;;;;;;;4943806;29;20432;-77
2024/01/17 07:20:10;;;;;;;60.70;19.87;;;;;;;;;;4937763;29;20425;-78
2024/01/17 07:22:41;;;;;;;44.37;19.73;;;;;;;;;;4936960;29;20490;-77
2024/01/17 07:25:08;;;;;;;42.27;20.43;;;;;;;;;;4936437;29;20429;-78
2024/01/17 07:27:34;;;;;;;43.07;21.40;;;;;;;;;;4935843;29;20417;-76
2024/01/17 07:29:59;;;;;;;49.33;20.17;;;;;;;;;;4932727;29;20446;-74
2024/01/17 07:32:25;;;;;;;36.13;17.83;;;;;;;;;;4928255;29;20558;-75
2024/01/17 07:34:52;;;;;;;44.20;17.90;;;;;;;;;;4928852;29;20425;-76
2024/01/17 07:37:18;;;;;;;42.03;18.67;;;;;;;;;;4921987;29;20465;-75
2024/01/17 07:39:44;;;;;;;44.87;19.57;;;;;;;;;;4935428;29;20421;-76
2024/01/17 07:42:10;;;;;;;49.13;23.47;;;;;;;;;;4927905;29;20454;-76
2024/01/17 07:44:36;;;;;;;41.70;18.67;;;;;;;;;;4914892;29;20511;-75
2024/01/17 07:47:02;;;;;;;39.37;19.57;;;;;;;;;;4924961;29;20406;-75
2024/01/17 07:49:29;;;;;;;43.93;19.20;;;;;;;;;;4927432;29;20414;-76
2024/01/17 07:51:55;;;;;;;51.00;20.80;;;;;;;;;;4927188;29;20509;-75
2024/01/17 07:54:23;;;;;;;49.30;22.70;;;;;;;;;;4923554;29;20480;-74
2024/01/17 07:56:49;;;;;;;44.77;21.20;;;;;;;;;;4935552;29;20181;-74
2024/01/17 07:59:15;;;;;;;48.63;21.80;;;;;;;;;;4934008;29;20429;-76
2024/01/17 08:01:42;;;;;;;49.10;21.60;;;;;;;;;;4935573;29;20516;-71
2024/01/17 08:04:08;;;;;;;46.00;18.20;;;;;;;;;;4932912;29;20627;-70
2024/01/17 08:06:34;;;;;;;63.00;22.50;;;;;;;;;;4934460;29;20413;-72
2024/01/17 08:09:00;;;;;;;53.20;22.30;;;;;;;;;;4934750;29;20418;-76
2024/01/17 08:11:26;;;;;;;56.13;22.63;;;;;;;;;;4934955;29;20453;-75
2024/01/17 08:13:52;;;;;;;46.53;20.93;;;;;;;;;;4933451;29;20532;-77
2024/01/17 08:16:18;;;;;;;61.97;21.50;;;;;;;;;;4935494;29;20418;-77
2024/01/17 08:18:44;;;;;;;59.37;24.20;;;;;;;;;;4935005;29;20452;-79
2024/01/17 08:21:10;;;;;;;57.80;23.37;;;;;;;;;;4934721;29;20457;-77
2024/01/17 08:23:36;;;;;;;59.20;22.40;;;;;;;;;;4935206;29;20469;-78
2024/01/17 08:26:02;;;;;;;48.93;23.73;;;;;;;;;;4934860;29;20512;-77
2024/01/17 08:28:28;;;;;;;59.90;24.97;;;;;;;;;;4934523;29;20914;-78
2024/01/17 08:30:54;;;;;;;59.33;22.13;;;;;;;;;;4928105;29;20545;-77
2024/01/17 08:33:20;;;;;;;56.70;24.57;;;;;;;;;;4916918;29;20470;-78
2024/01/17 08:35:47;;;;;;;62.10;26.53;;;;;;;;;;4934267;29;20453;-79
2024/01/17 08:38:13;;;;;;;53.30;23.00;;;;;;;;;;4935552;29;20476;-78
2024/01/17 08:40:39;;;;;;;52.50;23.70;;;;;;;;;;4934294;29;20457;-78
2024/01/17 08:43:05;;;;;;;61.80;24.77;;;;;;;;;;4934725;29;20457;-78
2024/01/17 08:45:31;;;;;;;58.30;21.90;;;;;;;;;;4935362;29;20428;-78
2024/01/17 08:47:57;;;;;;;43.53;20.87;;;;;;;;;;4936173;29;20417;-79
2024/01/17 08:50:23;;;;;;;56.43;21.93;;;;;;;;;;4936440;29;20425;-79
2024/01/17 08:52:49;;;;;;;41.40;20.60;;;;;;;;;;4936757;29;20582;-78
2024/01/17 08:55:15;;;;;;;49.63;20.60;;;;;;;;;;4933670;29;20429;-79
2024/01/17 08:57:41;;;;;;;57.93;22.33;;;;;;;;;;4936359;29;20422;-79
2024/01/17 09:00:08;;;;;;;47.10;20.00;;;;;;;;;;4936791;29;20456;-78
2024/01/17 09:02:34;;;;;;;42.93;20.47;;;;;;;;;;4937167;29;20473;-79
2024/01/17 09:05:00;;;;;;;42.63;18.27;;;;;;;;;;4936645;29;20421;-77
2024/01/17 09:07:26;;;;;;;50.00;19.93;;;;;;;;;;4948976;29;20419;-79
2024/01/17 09:09:52;;;;;;;46.67;19.57;;;;;;;;;;4937992;29;20429;-79
2024/01/17 09:12:19;;;;;;;61.87;23.03;;;;;;;;;;4935423;29;20480;-79
2024/01/17 09:14:45;;;;;;;49.97;21.43;;;;;;;;;;4934345;29;20453;-80
2024/01/17 09:17:11;;;;;;;46.67;22.03;;;;;;;;;;4934273;29;20449;-78
2024/01/17 09:19:37;;;;;;;55.90;24.03;;;;;;;;;;4935558;29;20452;-79
2024/01/17 09:22:03;;;;;;;59.90;23.57;;;;;;;;;;4936659;29;20456;-80
2024/01/17 09:24:30;;;;;;;48.87;22.30;;;;;;;;;;4938748;29;20428;-75
2024/01/17 09:26:56;;;;;;;60.20;23.30;;;;;;;;;;4938432;29;20508;-79
2024/01/17 09:29:22;;;;;;;47.93;20.47;;;;;;;;;;4936997;29;20445;-79
2024/01/17 09:31:48;;;;;;;50.67;19.67;;;;;;;;;;4933233;29;20516;-78
2024/01/17 09:34:14;;;;;;;53.50;21.70;;;;;;;;;;4936978;29;20494;-78
2024/01/17 09:36:40;;;;;;;54.63;21.37;;;;;;;;;;4936200;29;20937;-78
2024/01/17 09:39:06;;;;;;;48.20;20.33;;;;;;;;;;4937852;29;20441;-78
2024/01/17 09:41:32;;;;;;;48.00;21.77;;;;;;;;;;4937163;29;20461;-79
2024/01/17 09:43:58;;;;;;;54.43;23.20;;;;;;;;;;4938357;29;20844;-80
2024/01/17 09:46:24;;;;;;;58.63;23.10;;;;;;;;;;4941362;29;20414;-78
2024/01/17 09:48:50;;;;;;;54.07;22.97;;;;;;;;;;4937945;29;20430;-79
2024/01/17 09:51:16;;;;;;;57.27;22.30;;;;;;;;;;4941210;29;20437;-79
2024/01/17 09:53:47;;;;;;;47.73;23.30;;;;;;;;;;4943478;29;20506;-79
2024/01/17 09:56:14;;;;;;;55.07;25.13;;;;;;;;;;4935992;29;20988;-79
2024/01/17 09:58:43;;;;;;;50.23;22.73;;;;;;;;;;4938380;29;20489;-79
2024/01/17 10:01:09;;;;;;;51.43;21.83;;;;;;;;;;4937113;29;20477;-79
2024/01/17 10:03:37;;;;;;;54.87;22.10;;;;;;;;;;4936692;29;20528;-79
2024/01/17 10:06:03;;;;;;;44.10;20.43;;;;;;;;;;4941652;29;20418;-79
2024/01/17 10:08:30;;;;;;;49.43;22.57;;;;;;;;;;4943213;29;20800;-79
2024/01/17 10:10:56;;;;;;;56.50;24.70;;;;;;;;;;4940247;29;20446;-80
2024/01/17 10:13:22;;;;;;;52.73;23.40;;;;;;;;;;4940016;29;20417;-79
2024/01/17 10:15:48;;;;;;;55.93;21.60;;;;;;;;;;4937786;29;20429;-77
2024/01/17 10:18:15;;;;;;;56.60;24.33;;;;;;;;;;4939800;29;20418;-78
2024/01/17 10:20:42;;;;;;;49.90;22.27;;;;;;;;;;4937559;29;20470;-79
2024/01/17 10:23:09;;;;;;;58.73;24.93;;;;;;;;;;4942461;29;20484;-77
2024/01/17 10:25:41;;;;;;;46.93;21.20;;;;;;;;;;4930282;29;20433;-74
2024/01/17 10:28:07;;;;;;;51.67;21.90;;;;;;;;;;4935818;29;20462;-75
2024/01/17 10:30:34;;;;;;;47.37;19.90;;;;;;;;;;4941393;29;20449;-78
2024/01/17 10:33:00;;;;;;;49.67;19.70;;;;;;;;;;4945811;29;20417;-79
2024/01/17 10:35:27;;;;;;;45.83;20.37;;;;;;;;;;4937928;29;20433;-79
2024/01/17 10:37:53;;;;;;;52.70;21.63;;;;;;;;;;4922943;29;20919;-79
2024/01/17 10:40:19;;;;;;;54.90;22.90;;;;;;;;;;4928599;29;20429;-79
2024/01/17 10:42:45;;;;;;;44.17;20.57;;;;;;;;;;4938980;29;20461;-78
2024/01/17 10:45:21;;;;;;;40.17;19.57;;;;;;;;;;4935818;29;20436;-79
2024/01/17 10:47:48;;;;;;;54.50;22.87;;;;;;;;;;4932052;29;20432;-78
2024/01/17 10:50:14;;;;;;;50.47;22.33;;;;;;;;;;4924223;29;21012;-77
2024/01/17 10:52:41;;;;;;;41.43;20.50;;;;;;;;;;4937409;29;20434;-77
2024/01/17 10:55:08;;;;;;;51.23;20.07;;;;;;;;;;4936129;29;20433;-79
2024/01/17 10:57:36;;;;;;;36.60;17.87;;;;;;;;;;4934563;29;20462;-78
2024/01/17 11:00:03;;;;;;;44.70;19.90;;;;;;;;;;4923353;29;20430;-77
2024/01/17 11:02:30;;;;;;;42.50;19.70;;;;;;;;;;4921214;29;21043;-80
2024/01/17 11:04:58;;;;;;;41.97;19.50;;;;;;;;;;4923332;29;20422;-75
2024/01/17 11:07:24;;;;;;;41.73;17.37;;;;;;;;;;4940317;29;20433;-77
2024/01/17 11:09:51;;;;;;;40.07;19.10;;;;;;;;;;4939470;29;20495;-78
2024/01/17 11:12:18;;;;;;;35.87;16.97;;;;;;;;;;4934706;29;20508;-77
2024/01/17 11:14:44;;;;;;;35.90;16.70;;;;;;;;;;4917284;29;20427;-77
2024/01/17 11:17:10;;;;;;;35.50;17.57;;;;;;;;;;4935898;29;20422;-77
2024/01/17 11:19:37;;;;;;;44.93;18.07;;;;;;;;;;4918957;29;20422;-77
2024/01/17 11:22:03;;;;;;;38.90;16.70;;;;;;;;;;4934104;29;20957;-76
2024/01/17 11:24:32;;;;;;;39.97;16.30;;;;;;;;;;4935489;29;20429;-75
2024/01/17 11:27:05;;;;;;;39.00;15.83;;;;;;;;;;4931713;29;20422;-74
2024/01/17 11:29:37;;;;;;;34.40;15.57;;;;;;;;;;4926832;29;20793;-73
2024/01/17 11:32:09;;;;;;;29.43;14.20;;;;;;;;;;4931565;29;20469;-73
2024/01/17 11:34:35;;;;;;;33.87;16.77;;;;;;;;;;4934250;29;20448;-75
2024/01/17 11:37:01;;;;;;;31.23;14.07;;;;;;;;;;4924339;29;20942;-73
2024/01/17 11:39:27;;;;;;;41.73;15.07;;;;;;;;;;4922038;29;20414;-76
2024/01/17 11:41:54;;;;;;;33.80;15.97;;;;;;;;;;4932564;29;20449;-76
2024/01/17 11:44:22;;;;;;;31.20;15.10;;;;;;;;;;4931853;29;20837;-76
2024/01/17 11:46:53;;;;;;;34.37;16.00;;;;;;;;;;4934603;29;20425;-75
2024/01/17 11:49:39;;;;;;;37.10;15.30;;;;;;;;;;4935233;29;20406;-76
2024/01/17 11:52:08;;;;;;;37.13;15.07;;;;;;;;;;4934923;29;20448;-75
2024/01/17 11:54:35;;;;;;;37.03;15.70;;;;;;;;;;4935382;29;20437;-76
2024/01/17 11:57:06;;;;;;;31.23;13.70;;;;;;;;;;4933157;29;20444;-76
2024/01/17 11:59:34;;;;;;;27.13;12.70;;;;;;;;;;4923235;29;20430;-71
2024/01/17 12:02:00;;;;;;;29.47;13.80;;;;;;;;;;4923154;29;20927;-73
2024/01/17 12:04:26;;;;;;;24.13;12.43;;;;;;;;;;4934670;29;20552;-73
2024/01/17 12:06:55;;;;;;;24.40;11.80;;;;;;;;;;4934058;29;20441;-72
2024/01/17 12:09:21;;;;;;;27.70;12.27;;;;;;;;;;4933353;29;20415;-73
2024/01/17 12:11:47;;;;;;;32.10;11.53;;;;;;;;;;4929997;29;20868;-77
2024/01/17 12:14:16;;;;;;;24.73;11.97;;;;;;;;;;4927569;29;20574;-77
2024/01/17 12:16:43;;;;;;;27.70;13.77;;;;;;;;;;4920680;29;20850;-80
2024/01/17 12:19:12;;;;;;;24.50;12.07;;;;;;;;;;4917599;29;20432;-76
2024/01/17 12:21:38;;;;;;;22.77;11.87;;;;;;;;;;4933587;29;20496;-76
2024/01/17 12:24:04;;;;;;;31.73;12.00;;;;;;;;;;4934538;29;20472;-77
2024/01/17 12:26:34;;;;;;;23.60;12.27;;;;;;;;;;4933828;29;20472;-76
2024/01/17 12:29:10;;;;;;;25.70;11.97;;;;;;;;;;4933224;29;20992;-78
2024/01/17 12:31:38;;;;;;;22.83;9.93;;;;;;;;;;4934625;29;20441;-75
2024/01/17 12:34:07;;;;;;;14.00;8.70;;;;;;;;;;4932970;29;20428;-76
2024/01/17 12:36:35;;;;;;;19.47;9.00;;;;;;;;;;4942550;29;20421;-79
2024/01/17 12:39:04;;;;;;;25.13;8.30;;;;;;;;;;4948940;28;20488;-80
2024/01/17 12:41:29;;;;;;;16.03;8.10;;;;;;;;;;4937924;29;20460;-79
2024/01/17 12:43:55;;;;;;;15.67;8.67;;;;;;;;;;4938266;29;20465;-79
2024/01/17 12:46:21;;;;;;;16.63;8.17;;;;;;;;;;4932486;29;20512;-79
2024/01/17 12:48:54;;;;;;;17.73;9.97;;;;;;;;;;4932190;29;20505;-79
2024/01/17 12:51:20;;;;;;;19.30;9.47;;;;;;;;;;4938864;29;20449;-80
2024/01/17 12:53:46;;;;;;;20.70;8.90;;;;;;;;;;4941167;29;20485;-79
2024/01/17 12:56:14;;;;;;;27.70;10.50;;;;;;;;;;4941262;29;20444;-80
2024/01/17 12:58:40;;;;;;;16.83;9.60;;;;;;;;;;4934197;29;20441;-80
2024/01/17 13:01:06;;;;;;;18.87;9.90;;;;;;;;;;4937918;29;20601;-79
2024/01/17 13:03:32;;;;;;;26.30;11.17;;;;;;;;;;4936962;29;20529;-78
2024/01/17 13:06:03;;;;;;;25.33;12.33;;;;;;;;;;4932178;29;20425;-79
2024/01/17 13:08:29;;;;;;;18.67;11.57;;;;;;;;;;4941324;29;20521;-78
2024/01/17 13:10:55;;;;;;;20.20;9.67;;;;;;;;;;4935351;29;20961;-77
2024/01/17 13:13:27;;;;;;;19.57;9.73;;;;;;;;;;4939096;29;20464;-77
2024/01/17 13:15:54;;;;;;;21.97;10.50;;;;;;;;;;4938660;29;20876;-80
2024/01/17 13:18:21;;;;;;;24.63;9.90;;;;;;;;;;4938125;29;20431;-81
2024/01/17 13:20:47;;;;;;;21.50;9.27;;;;;;;;;;4928719;29;20877;-80
2024/01/17 13:23:13;;;;;;;23.10;9.37;;;;;;;;;;4942719;29;20461;-80
2024/01/17 13:25:40;;;;;;;22.30;9.27;;;;;;;;;;4941145;29;20433;-80
2024/01/17 13:28:08;;;;;;;16.37;9.57;;;;;;;;;;4943829;29;20410;-80
2024/01/17 13:30:37;;;;;;;18.47;10.20;;;;;;;;;;4941930;29;20442;-81
2024/01/17 13:33:06;;;;;;;19.67;9.70;;;;;;;;;;4942004;29;21002;-80
2024/01/17 13:35:33;;;;;;;21.57;8.70;;;;;;;;;;4940239;29;20534;-80
2024/01/17 13:38:00;;;;;;;21.20;9.17;;;;;;;;;;4941481;29;20454;-80
2024/01/17 13:40:27;;;;;;;16.50;8.70;;;;;;;;;;4928965;29;20852;-80
2024/01/17 13:42:54;;;;;;;14.83;7.70;;;;;;;;;;4936998;29;20465;-81
2024/01/17 13:45:20;;;;;;;15.37;7.30;;;;;;;;;;4925839;29;20427;-79
2024/01/17 13:47:46;;;;;;;12.80;7.73;;;;;;;;;;4942479;29;20418;-80
2024/01/17 13:50:25;;;;;;;18.17;7.07;;;;;;;;;;4942963;29;20469;-80
2024/01/17 13:52:57;;;;;;;15.73;7.30;;;;;;;;;;4940938;29;20489;-80
2024/01/17 13:55:24;;;;;;;12.33;7.07;;;;;;;;;;4939610;29;20421;-79
2024/01/17 13:57:51;;;;;;;15.27;7.33;;;;;;;;;;4939192;29;20422;-79
2024/01/17 14:00:19;;;;;;;12.87;8.17;;;;;;;;;;4939358;29;20508;-79
2024/01/17 14:02:45;;;;;;;13.70;7.20;;;;;;;;;;4939789;29;20472;-79
2024/01/17 14:05:11;;;;;;;9.50;6.37;;;;;;;;;;4928304;29;20418;-80
2024/01/17 14:07:40;;;;;;;7.63;5.60;;;;;;;;;;4938287;29;20426;-78
2024/01/17 14:10:07;;;;;;;10.03;6.20;;;;;;;;;;4938129;29;20433;-79
2024/01/17 14:12:33;;;;;;;10.90;5.43;;;;;;;;;;4936035;29;20434;-80
2024/01/17 14:14:59;;;;;;;9.27;5.93;;;;;;;;;;4937568;29;20403;-78
2024/01/17 14:17:26;;;;;;;11.90;6.60;;;;;;;;;;4953950;28;20442;-79
2024/01/17 14:19:54;;;;;;;10.03;5.40;;;;;;;;;;4950465;29;20427;-76
2024/01/17 14:22:21;;;;;;;12.67;6.50;;;;;;;;;;4951724;29;20442;-80
2024/01/17 14:24:47;;;;;;;11.33;5.97;;;;;;;;;;4922796;29;20415;-75
2024/01/17 14:27:13;;;;;;;10.17;6.07;;;;;;;;;;4931979;29;20508;-77
2024/01/17 14:29:39;;;;;;;8.80;5.80;;;;;;;;;;4932834;29;20771;-78
2024/01/17 14:32:04;;;;;;;12.30;5.80;;;;;;;;;;4928409;29;20441;-74
2024/01/17 14:34:30;;;;;;;10.63;7.07;;;;;;;;;;4916320;29;20427;-74
2024/01/17 14:36:56;;;;;;;10.83;5.90;;;;;;;;;;4930386;29;20442;-80
2024/01/17 14:39:22;;;;;;;10.20;6.80;;;;;;;;;;4924377;29;20449;-80
2024/01/17 14:41:48;;;;;;;13.20;7.10;;;;;;;;;;4924178;29;20445;-80
2024/01/17 14:44:14;;;;;;;12.63;7.00;;;;;;;;;;4940792;29;20497;-80
2024/01/17 14:46:43;;;;;;;13.60;7.60;;;;;;;;;;4940099;29;20413;-79
2024/01/17 14:49:10;;;;;;;12.83;7.37;;;;;;;;;;4937053;29;20451;-80
2024/01/17 14:51:36;;;;;;;12.70;7.40;;;;;;;;;;4949476;29;20441;-79
2024/01/17 14:54:02;;;;;;;18.03;7.33;;;;;;;;;;4954865;29;20452;-79
2024/01/17 14:56:28;;;;;;;12.37;6.93;;;;;;;;;;4958669;29;20432;-80
2024/01/17 14:58:55;;;;;;;13.40;6.80;;;;;;;;;;4958454;29;20917;-80
2024/01/17 15:01:21;;;;;;;17.23;7.03;;;;;;;;;;4943266;29;20469;-80
2024/01/17 15:03:47;;;;;;;14.80;6.97;;;;;;;;;;4938934;29;20469;-80
2024/01/17 15:06:20;;;;;;;9.87;6.43;;;;;;;;;;4940282;29;20418;-80
2024/01/17 15:08:46;;;;;;;13.07;6.70;;;;;;;;;;4941069;29;20425;-80
2024/01/17 15:11:11;;;;;;;15.77;8.00;;;;;;;;;;4941048;29;20438;-80
2024/01/17 15:13:37;;;;;;;11.33;6.63;;;;;;;;;;4937616;29;20418;-82
2024/01/17 15:16:04;;;;;;;12.43;7.20;;;;;;;;;;4924458;29;20507;-82
2024/01/17 15:18:30;;;;;;;15.97;6.80;;;;;;;;;;4925745;29;20492;-81
2024/01/17 15:20:56;;;;;;;11.93;6.10;;;;;;;;;;4937093;29;20964;-80
2024/01/17 15:23:22;;;;;;;16.03;6.80;;;;;;;;;;4938086;29;20454;-79
2024/01/17 15:25:48;;;;;;;14.47;7.57;;;;;;;;;;4938269;29;20480;-80
2024/01/17 15:28:14;;;;;;;13.53;7.77;;;;;;;;;;4928776;29;20493;-79
2024/01/17 15:30:43;;;;;;;16.00;6.87;;;;;;;;;;4918692;29;20957;-80
2024/01/17 15:33:09;;;;;;;12.20;7.27;;;;;;;;;;4918437;29;20568;-81
2024/01/17 15:35:36;;;;;;;10.50;6.73;;;;;;;;;;4917900;29;21149;-79
2024/01/17 15:38:02;;;;;;;12.20;7.50;;;;;;;;;;4919741;29;20903;-80
2024/01/17 15:40:28;;;;;;;17.37;7.93;;;;;;;;;;4919384;29;20443;-80
2024/01/17 15:42:54;;;;;;;20.37;9.00;;;;;;;;;;4920253;29;20470;-79
2024/01/17 15:45:20;;;;;;;16.87;7.83;;;;;;;;;;4931930;29;20924;-78
2024/01/17 15:47:46;;;;;;;12.87;7.43;;;;;;;;;;4930878;29;20422;-80
2024/01/17 15:50:15;;;;;;;17.83;8.77;;;;;;;;;;4928437;29;20427;-80
2024/01/17 15:52:41;;;;;;;18.27;7.87;;;;;;;;;;4924188;29;20433;-81
2024/01/17 15:55:07;;;;;;;18.07;8.10;;;;;;;;;;4938065;29;20844;-81
2024/01/17 15:57:33;;;;;;;21.70;8.17;;;;;;;;;;4938404;29;20889;-81
2024/01/17 15:59:59;;;;;;;16.90;9.13;;;;;;;;;;4938456;29;20516;-80
2024/01/17 16:02:25;;;;;;;16.20;8.33;;;;;;;;;;4928658;29;20821;-80
2024/01/17 16:04:51;;;;;;;14.67;7.50;;;;;;;;;;4938636;29;20429;-81
2024/01/17 16:07:17;;;;;;;26.17;8.27;;;;;;;;;;4940358;29;20406;-81
2024/01/17 16:09:47;;;;;;;17.33;8.93;;;;;;;;;;4938334;29;20781;-80
2024/01/17 16:12:14;;;;;;;25.93;10.70;;;;;;;;;;4919508;29;20435;-80
2024/01/17 16:14:40;;;;;;;19.03;10.70;;;;;;;;;;4918549;29;20423;-82
2024/01/17 16:17:05;;;;;;;20.63;10.50;;;;;;;;;;4932742;29;20444;-80
2024/01/17 16:19:32;;;;;;;23.07;9.73;;;;;;;;;;4940663;29;20421;-79
2024/01/17 16:21:59;;;;;;;20.10;9.60;;;;;;;;;;4938992;29;20442;-80
2024/01/17 16:24:25;;;;;;;18.83;8.47;;;;;;;;;;4917794;29;20470;-77
2024/01/17 16:26:51;;;;;;;18.77;9.60;;;;;;;;;;4932895;29;20452;-76
2024/01/17 16:29:17;;;;;;;17.03;9.03;;;;;;;;;;4935701;29;20406;-76
2024/01/17 16:31:47;;;;;;;23.53;9.83;;;;;;;;;;4937281;29;20945;-77
2024/01/17 16:34:12;;;;;;;26.40;9.53;;;;;;;;;;4939504;29;20505;-79
2024/01/17 16:36:41;;;;;;;23.57;10.73;;;;;;;;;;4937974;29;20426;-80
2024/01/17 16:39:08;;;;;;;25.87;10.80;;;;;;;;;;4934727;29;20444;-73
2024/01/17 16:41:35;;;;;;;18.43;9.97;;;;;;;;;;4925946;29;20446;-75
2024/01/17 16:44:01;;;;;;;16.83;10.00;;;;;;;;;;4924590;29;20469;-81
2024/01/17 16:46:27;;;;;;;28.63;11.50;;;;;;;;;;4926544;29;20434;-78
2024/01/17 16:48:53;;;;;;;25.53;10.53;;;;;;;;;;4924412;29;20774;-79
2024/01/17 16:51:19;;;;;;;15.43;8.70;;;;;;;;;;4929020;29;20442;-80
2024/01/17 16:53:45;;;;;;;16.50;8.07;;;;;;;;;;4926056;29;20423;-79
2024/01/17 16:56:11;;;;;;;19.70;7.87;;;;;;;;;;4944721;29;20417;-80
2024/01/17 16:58:37;;;;;;;15.23;7.87;;;;;;;;;;4953351;28;20489;-79
2024/01/17 17:01:03;;;;;;;15.87;8.10;;;;;;;;;;4938639;29;20544;-80
2024/01/17 17:03:29;;;;;;;19.07;8.00;;;;;;;;;;4928926;29;20813;-81
2024/01/17 17:05:56;;;;;;;15.40;7.90;;;;;;;;;;4920221;29;20422;-80
2024/01/17 17:08:22;;;;;;;16.43;7.80;;;;;;;;;;4919873;29;20501;-79
2024/01/17 17:10:48;;;;;;;17.23;8.40;;;;;;;;;;4921187;29;20450;-79
2024/01/17 17:13:14;;;;;;;13.90;7.17;;;;;;;;;;4921829;29;20429;-80
2024/01/17 17:15:40;;;;;;;20.63;8.53;;;;;;;;;;4921303;29;20919;-80
2024/01/17 17:18:10;;;;;;;20.67;8.60;;;;;;;;;;4933608;29;20448;-80
2024/01/17 17:20:36;;;;;;;17.40;8.53;;;;;;;;;;4945885;29;20432;-80
2024/01/17 17:23:02;;;;;;;17.33;8.20;;;;;;;;;;4945108;29;20493;-80
2024/01/17 17:25:28;;;;;;;17.00;8.43;;;;;;;;;;4947845;29;20425;-81
2024/01/17 17:27:54;;;;;;;14.17;8.80;;;;;;;;;;4951076;29;20409;-79
2024/01/17 17:30:20;;;;;;;13.40;7.90;;;;;;;;;;4946684;29;20418;-79
2024/01/17 17:32:46;;;;;;;17.27;9.13;;;;;;;;;;4945744;29;20422;-80
2024/01/17 17:35:12;;;;;;;12.60;7.53;;;;;;;;;;4953129;29;20428;-79
2024/01/17 17:37:38;;;;;;;14.63;7.40;;;;;;;;;;4951032;29;20426;-79
2024/01/17 17:40:04;;;;;;;12.03;7.07;;;;;;;;;;4933850;29;20422;-79
2024/01/17 17:42:30;;;;;;;14.47;7.07;;;;;;;;;;4932405;29;20442;-82
2024/01/17 17:44:56;;;;;;;15.97;6.40;;;;;;;;;;4932185;29;20425;-79
2024/01/17 17:47:23;;;;;;;10.83;6.63;;;;;;;;;;4931531;29;20425;-80
2024/01/17 17:49:50;;;;;;;13.70;7.60;;;;;;;;;;4935499;29;20423;-80
2024/01/17 17:52:16;;;;;;;18.87;7.90;;;;;;;;;;4932490;29;20435;-81
2024/01/17 17:54:44;;;;;;;15.60;7.53;;;;;;;;;;4932087;29;20430;-80
2024/01/17 17:57:10;;;;;;;19.90;6.97;;;;;;;;;;4932712;29;20411;-80
2024/01/17 17:59:36;;;;;;;11.93;7.53;;;;;;;;;;4933375;29;20458;-80
2024/01/17 18:02:04;;;;;;;15.20;7.87;;;;;;;;;;4933316;29;20454;-80
2024/01/17 18:04:30;;;;;;;12.33;7.23;;;;;;;;;;4932322;29;20526;-80
2024/01/17 18:06:56;;;;;;;14.27;7.70;;;;;;;;;;4932276;29;20463;-80
2024/01/17 18:09:22;;;;;;;13.10;7.40;;;;;;;;;;4931419;29;20418;-80
2024/01/17 18:11:48;;;;;;;13.17;7.40;;;;;;;;;;4931664;29;20545;-79
2024/01/17 18:14:14;;;;;;;13.03;7.50;;;;;;;;;;4990150;23;20554;-74
2024/01/17 18:16:40;;;;;;;13.03;7.30;;;;;;;;;;4975359;28;20503;-74
2024/01/17 18:19:07;;;;;;;15.60;7.43;;;;;;;;;;4975820;28;20408;-73
2024/01/17 18:21:37;;;;;;;16.30;7.63;;;;;;;;;;4975854;28;20487;-73
2024/01/17 18:24:03;;;;;;;16.97;8.60;;;;;;;;;;4975929;28;20475;-73
2024/01/17 18:26:29;;;;;;;17.37;8.20;;;;;;;;;;4975275;28;20911;-73
2024/01/17 18:28:55;;;;;;;18.13;8.50;;;;;;;;;;4975532;28;20822;-73
2024/01/17 18:31:21;;;;;;;16.03;8.20;;;;;;;;;;4974881;28;20911;-74
2024/01/17 18:33:47;;;;;;;20.20;8.57;;;;;;;;;;4968796;28;20810;-75
2024/01/17 18:36:13;;;;;;;12.73;6.70;;;;;;;;;;4971306;28;20428;-76
2024/01/17 18:38:40;;;;;;;16.17;7.30;;;;;;;;;;4961471;28;20432;-74
2024/01/17 18:41:07;;;;;;;12.30;6.43;;;;;;;;;;4958132;28;20450;-75
2024/01/17 18:43:33;;;;;;;15.93;7.20;;;;;;;;;;4968884;28;20479;-75
2024/01/17 18:46:00;;;;;;;17.10;6.70;;;;;;;;;;4963484;28;20428;-76
2024/01/17 18:48:26;;;;;;;15.90;6.70;;;;;;;;;;4967291;28;20783;-77
2024/01/17 18:50:52;;;;;;;12.73;6.30;;;;;;;;;;4973850;28;20424;-77
2024/01/17 18:53:18;;;;;;;13.80;5.57;;;;;;;;;;4962456;28;21022;-77
2024/01/17 18:55:44;;;;;;;8.50;5.30;;;;;;;;;;4963229;28;20961;-77
2024/01/17 18:58:13;;;;;;;6.40;4.80;;;;;;;;;;4962259;28;20436;-77
2024/01/17 19:00:39;;;;;;;7.57;4.47;;;;;;;;;;4963234;28;20435;-78
2024/01/17 19:03:05;;;;;;;7.10;5.10;;;;;;;;;;4971103;28;20478;-77
2024/01/17 19:05:33;;;;;;;8.73;5.07;;;;;;;;;;4967525;28;20420;-77
2024/01/17 19:07:59;;;;;;;11.70;4.53;;;;;;;;;;4974289;28;20427;-78
2024/01/17 19:10:25;;;;;;;8.33;4.70;;;;;;;;;;4974521;28;20498;-76
2024/01/17 19:12:51;;;;;;;9.80;4.43;;;;;;;;;;4966283;28;20429;-77
2024/01/17 19:15:17;;;;;;;6.20;3.30;;;;;;;;;;4974723;28;20497;-76
2024/01/17 19:17:43;;;;;;;5.20;3.57;;;;;;;;;;4974647;28;20420;-76
2024/01/17 19:20:09;;;;;;;6.40;3.80;;;;;;;;;;4971352;28;20443;-77
2024/01/17 19:22:36;;;;;;;7.83;3.90;;;;;;;;;;4969305;28;20452;-77
2024/01/17 19:25:03;;;;;;;12.30;4.03;;;;;;;;;;4974340;28;20519;-76
2024/01/17 19:27:31;;;;;;;8.13;3.93;;;;;;;;;;4964785;28;20434;-76
2024/01/17 19:29:57;;;;;;;4.87;3.13;;;;;;;;;;4975877;28;20583;-77
2024/01/17 19:32:23;;;;;;;7.17;2.93;;;;;;;;;;4966289;28;21057;-77
2024/01/17 19:34:49;;;;;;;8.00;4.50;;;;;;;;;;4965751;28;20467;-77
2024/01/17 19:37:15;;;;;;;3.70;2.70;;;;;;;;;;4962431;28;20429;-76
2024/01/17 19:39:41;;;;;;;4.30;3.13;;;;;;;;;;4974038;28;20432;-76
2024/01/17 19:42:07;;;;;;;6.57;3.70;;;;;;;;;;4973958;28;20424;-77
2024/01/17 19:44:33;;;;;;;4.60;2.93;;;;;;;;;;4959816;28;20476;-76
2024/01/17 19:47:00;;;;;;;6.50;3.90;;;;;;;;;;4971784;28;20427;-74
2024/01/17 19:49:26;;;;;;;9.80;3.37;;;;;;;;;;4973776;28;20478;-74
2024/01/17 19:51:52;;;;;;;6.00;2.93;;;;;;;;;;4973758;28;20986;-74
2024/01/17 19:54:18;;;;;;;4.80;3.27;;;;;;;;;;4973865;28;20474;-74
2024/01/17 19:56:44;;;;;;;4.57;3.03;;;;;;;;;;4972434;28;20423;-74
2024/01/17 19:59:11;;;;;;;4.33;2.97;;;;;;;;;;4970928;28;20481;-74
2024/01/17 20:01:36;;;;;;;3.80;2.53;;;;;;;;;;4968556;28;20420;-73
2024/01/17 20:04:02;;;;;;;4.53;2.77;;;;;;;;;;4973467;28;20486;-73
2024/01/17 20:06:28;;;;;;;3.13;2.20;;;;;;;;;;4969533;28;20417;-74
2024/01/17 20:08:54;;;;;;;2.53;2.20;;;;;;;;;;4954264;28;20428;-75
2024/01/17 20:11:22;;;;;;;3.07;2.10;;;;;;;;;;4971128;28;20420;-73
2024/01/17 20:13:48;;;;;;;2.90;2.50;;;;;;;;;;4973406;28;20463;-74
2024/01/17 20:16:14;;;;;;;3.30;2.07;;;;;;;;;;4973253;28;20420;-75
2024/01/17 20:18:41;;;;;;;4.80;2.70;;;;;;;;;;4972605;28;20478;-75
2024/01/17 20:21:17;;;;;;;3.53;2.80;;;;;;;;;;4973291;28;20494;-75
2024/01/17 20:23:43;;;;;;;3.17;2.70;;;;;;;;;;4972403;28;20573;-75